sensor_id;sensor_type;location;lat;lon;timestamp;P1;durP1;ratioP1;P2;durP2;ratioP2
66663;SDS011;59683;51.428;-1.994;2023-01-19T00:02:40;49.30;;;18.63;;
66663;SDS011;59683;51.428;-1.994;2023-01-19T00:05:34;51.08;;;17.02;;
66663;SDS011;59683;51.428;-1.994;2023-01-19T00:09:19;71.00;;;20.85;;
66663;SDS011;59683;51.428;-1.994;2023-01-19T00:15:40;89.93;;;25.87;;
66663;SDS011;59683;51.428;-1.994;2023-01-19T00:18:34;84.78;;;24.83;;
66663;SDS011;59683;51.428;-1.994;2023-01-19T00:24:45;53.92;;;16.58;;
66663;SDS011;59683;51.428;-1.994;2023-01-19T00:27:16;43.40;;;16.48;;
66663;SDS011;59683;51.428;-1.994;2023-01-19T00:29:44;42.90;;;15.57;;
66663;SDS011;59683;51.428;-1.994;2023-01-19T00:32:16;53.67;;;16.55;;
66663;SDS011;59683;51.428;-1.994;2023-01-19T00:34:48;42.35;;;17.10;;
66663;SDS011;59683;51.428;-1.994;2023-01-19T00:37:25;56.65;;;18.10;;
66663;SDS011;59683;51.428;-1.994;2023-01-19T00:40:14;67.07;;;19.88;;
66663;SDS011;59683;51.428;-1.994;2023-01-19T00:42:40;72.55;;;21.08;;
66663;SDS011;59683;51.428;-1.994;2023-01-19T00:45:14;73.20;;;21.10;;
66663;SDS011;59683;51.428;-1.994;2023-01-19T00:47:47;65.15;;;19.17;;
66663;SDS011;59683;51.428;-1.994;2023-01-19T00:50:21;48.72;;;17.45;;
66663;SDS011;59683;51.428;-1.994;2023-01-19T00:52:50;53.88;;;16.23;;
66663;SDS011;59683;51.428;-1.994;2023-01-19T00:55:17;51.22;;;18.15;;
66663;SDS011;59683;51.428;-1.994;2023-01-19T00:57:43;62.60;;;20.37;;
66663;SDS011;59683;51.428;-1.994;2023-01-19T01:00:13;81.50;;;23.73;;
66663;SDS011;59683;51.428;-1.994;2023-01-19T01:02:41;80.28;;;21.58;;
66663;SDS011;59683;51.428;-1.994;2023-01-19T01:05:09;70.25;;;22.02;;
66663;SDS011;59683;51.428;-1.994;2023-01-19T01:07:35;66.90;;;19.73;;
66663;SDS011;59683;51.428;-1.994;2023-01-19T01:10:07;61.47;;;18.13;;
66663;SDS011;59683;51.428;-1.994;2023-01-19T01:12:34;70.45;;;20.75;;
66663;SDS011;59683;51.428;-1.994;2023-01-19T01:15:02;83.80;;;22.17;;
66663;SDS011;59683;51.428;-1.994;2023-01-19T01:17:29;67.22;;;20.80;;
66663;SDS011;59683;51.428;-1.994;2023-01-19T01:19:54;81.60;;;21.77;;
66663;SDS011;59683;51.428;-1.994;2023-01-19T01:22:20;68.00;;;19.40;;
66663;SDS011;59683;51.428;-1.994;2023-01-19T01:24:46;65.77;;;18.27;;
66663;SDS011;59683;51.428;-1.994;2023-01-19T01:27:12;53.13;;;17.03;;
66663;SDS011;59683;51.428;-1.994;2023-01-19T01:29:38;49.17;;;15.53;;
66663;SDS011;59683;51.428;-1.994;2023-01-19T01:32:05;42.97;;;14.40;;
66663;SDS011;59683;51.428;-1.994;2023-01-19T01:34:31;54.55;;;16.40;;
66663;SDS011;59683;51.428;-1.994;2023-01-19T01:36:57;51.07;;;15.97;;
66663;SDS011;59683;51.428;-1.994;2023-01-19T01:39:22;53.30;;;16.37;;
66663;SDS011;59683;51.428;-1.994;2023-01-19T01:41:48;60.40;;;16.03;;
66663;SDS011;59683;51.428;-1.994;2023-01-19T01:49:58;66.25;;;19.48;;
66663;SDS011;59683;51.428;-1.994;2023-01-19T01:52:32;66.07;;;20.95;;
66663;SDS011;59683;51.428;-1.994;2023-01-19T01:55:01;51.67;;;16.80;;
66663;SDS011;59683;51.428;-1.994;2023-01-19T01:57:30;64.22;;;18.50;;
66663;SDS011;59683;51.428;-1.994;2023-01-19T01:59:58;59.08;;;16.95;;
66663;SDS011;59683;51.428;-1.994;2023-01-19T02:02:24;56.30;;;15.30;;
66663;SDS011;59683;51.428;-1.994;2023-01-19T02:05:14;56.92;;;16.27;;
66663;SDS011;59683;51.428;-1.994;2023-01-19T02:07:50;59.15;;;17.38;;
66663;SDS011;59683;51.428;-1.994;2023-01-19T02:10:40;67.05;;;18.02;;
66663;SDS011;59683;51.428;-1.994;2023-01-19T02:13:24;56.85;;;15.88;;
66663;SDS011;59683;51.428;-1.994;2023-01-19T02:15:56;81.10;;;20.20;;
66663;SDS011;59683;51.428;-1.994;2023-01-19T02:18:24;58.70;;;18.88;;
66663;SDS011;59683;51.428;-1.994;2023-01-19T02:23:38;68.65;;;18.63;;
66663;SDS011;59683;51.428;-1.994;2023-01-19T02:26:05;39.45;;;14.52;;
66663;SDS011;59683;51.428;-1.994;2023-01-19T02:28:33;48.08;;;14.88;;
66663;SDS011;59683;51.428;-1.994;2023-01-19T02:31:02;58.83;;;17.00;;
66663;SDS011;59683;51.428;-1.994;2023-01-19T02:33:28;50.95;;;16.00;;
66663;SDS011;59683;51.428;-1.994;2023-01-19T02:35:54;50.87;;;14.40;;
66663;SDS011;59683;51.428;-1.994;2023-01-19T02:38:20;47.42;;;15.10;;
66663;SDS011;59683;51.428;-1.994;2023-01-19T02:40:50;64.75;;;17.17;;
66663;SDS011;59683;51.428;-1.994;2023-01-19T02:43:18;68.43;;;17.35;;
66663;SDS011;59683;51.428;-1.994;2023-01-19T02:45:44;63.97;;;17.50;;
66663;SDS011;59683;51.428;-1.994;2023-01-19T02:48:10;57.80;;;16.27;;
66663;SDS011;59683;51.428;-1.994;2023-01-19T02:50:41;61.33;;;16.37;;
66663;SDS011;59683;51.428;-1.994;2023-01-19T02:53:28;67.88;;;16.48;;
66663;SDS011;59683;51.428;-1.994;2023-01-19T02:56:27;68.05;;;18.23;;
66663;SDS011;59683;51.428;-1.994;2023-01-19T03:07:29;45.88;;;14.27;;
66663;SDS011;59683;51.428;-1.994;2023-01-19T03:13:03;44.67;;;14.48;;
66663;SDS011;59683;51.428;-1.994;2023-01-19T03:18:07;68.78;;;16.88;;
66663;SDS011;59683;51.428;-1.994;2023-01-19T03:20:34;69.72;;;16.48;;
66663;SDS011;59683;51.428;-1.994;2023-01-19T03:23:03;39.22;;;12.18;;
66663;SDS011;59683;51.428;-1.994;2023-01-19T03:25:32;47.20;;;13.27;;
66663;SDS011;59683;51.428;-1.994;2023-01-19T03:28:00;59.03;;;14.88;;
66663;SDS011;59683;51.428;-1.994;2023-01-19T03:30:29;60.28;;;16.63;;
66663;SDS011;59683;51.428;-1.994;2023-01-19T03:33:03;46.13;;;13.60;;
66663;SDS011;59683;51.428;-1.994;2023-01-19T03:35:38;44.78;;;12.82;;
66663;SDS011;59683;51.428;-1.994;2023-01-19T03:38:13;40.55;;;12.25;;
66663;SDS011;59683;51.428;-1.994;2023-01-19T03:40:41;40.00;;;11.77;;
66663;SDS011;59683;51.428;-1.994;2023-01-19T03:43:07;38.65;;;12.23;;
66663;SDS011;59683;51.428;-1.994;2023-01-19T03:45:35;50.33;;;13.80;;
66663;SDS011;59683;51.428;-1.994;2023-01-19T03:48:03;53.00;;;15.65;;
66663;SDS011;59683;51.428;-1.994;2023-01-19T03:50:30;49.28;;;14.80;;
66663;SDS011;59683;51.428;-1.994;2023-01-19T03:52:59;74.50;;;17.10;;
66663;SDS011;59683;51.428;-1.994;2023-01-19T03:55:25;47.28;;;13.45;;
66663;SDS011;59683;51.428;-1.994;2023-01-19T03:57:50;60.63;;;15.77;;
66663;SDS011;59683;51.428;-1.994;2023-01-19T04:00:16;55.63;;;15.50;;
66663;SDS011;59683;51.428;-1.994;2023-01-19T04:02:41;54.00;;;14.63;;
66663;SDS011;59683;51.428;-1.994;2023-01-19T04:05:07;46.20;;;14.57;;
66663;SDS011;59683;51.428;-1.994;2023-01-19T04:07:32;57.87;;;17.20;;
66663;SDS011;59683;51.428;-1.994;2023-01-19T04:09:58;51.47;;;14.23;;
66663;SDS011;59683;51.428;-1.994;2023-01-19T04:12:23;43.37;;;13.87;;
66663;SDS011;59683;51.428;-1.994;2023-01-19T04:14:48;52.73;;;14.00;;
66663;SDS011;59683;51.428;-1.994;2023-01-19T04:17:14;53.23;;;14.63;;
66663;SDS011;59683;51.428;-1.994;2023-01-19T04:19:40;65.70;;;15.83;;
66663;SDS011;59683;51.428;-1.994;2023-01-19T04:22:05;55.73;;;14.20;;
66663;SDS011;59683;51.428;-1.994;2023-01-19T04:24:30;56.00;;;17.37;;
66663;SDS011;59683;51.428;-1.994;2023-01-19T04:26:56;52.97;;;15.90;;
66663;SDS011;59683;51.428;-1.994;2023-01-19T04:29:21;61.37;;;16.70;;
66663;SDS011;59683;51.428;-1.994;2023-01-19T04:31:48;73.43;;;19.70;;
66663;SDS011;59683;51.428;-1.994;2023-01-19T04:34:13;68.97;;;17.13;;
66663;SDS011;59683;51.428;-1.994;2023-01-19T04:36:39;63.17;;;16.67;;
66663;SDS011;59683;51.428;-1.994;2023-01-19T04:39:04;50.47;;;13.37;;
66663;SDS011;59683;51.428;-1.994;2023-01-19T04:41:29;38.77;;;11.53;;
66663;SDS011;59683;51.428;-1.994;2023-01-19T04:43:55;50.80;;;13.40;;
66663;SDS011;59683;51.428;-1.994;2023-01-19T04:46:20;50.97;;;14.13;;
66663;SDS011;59683;51.428;-1.994;2023-01-19T04:48:46;42.10;;;13.17;;
66663;SDS011;59683;51.428;-1.994;2023-01-19T04:51:11;44.63;;;13.50;;
66663;SDS011;59683;51.428;-1.994;2023-01-19T04:53:36;59.70;;;14.70;;
66663;SDS011;59683;51.428;-1.994;2023-01-19T04:56:02;55.73;;;15.87;;
66663;SDS011;59683;51.428;-1.994;2023-01-19T04:58:27;56.67;;;15.47;;
66663;SDS011;59683;51.428;-1.994;2023-01-19T05:00:53;48.30;;;13.13;;
66663;SDS011;59683;51.428;-1.994;2023-01-19T05:03:18;55.93;;;13.27;;
66663;SDS011;59683;51.428;-1.994;2023-01-19T05:05:44;52.90;;;14.13;;
66663;SDS011;59683;51.428;-1.994;2023-01-19T05:08:10;42.65;;;13.98;;
66663;SDS011;59683;51.428;-1.994;2023-01-19T05:10:36;41.90;;;12.93;;
66663;SDS011;59683;51.428;-1.994;2023-01-19T05:13:01;47.97;;;13.13;;
66663;SDS011;59683;51.428;-1.994;2023-01-19T05:15:27;45.37;;;14.20;;
66663;SDS011;59683;51.428;-1.994;2023-01-19T05:17:52;43.70;;;13.83;;
66663;SDS011;59683;51.428;-1.994;2023-01-19T05:20:17;49.00;;;14.60;;
66663;SDS011;59683;51.428;-1.994;2023-01-19T05:22:50;77.87;;;19.03;;
66663;SDS011;59683;51.428;-1.994;2023-01-19T05:25:16;52.47;;;14.85;;
66663;SDS011;59683;51.428;-1.994;2023-01-19T05:27:42;60.90;;;15.48;;
66663;SDS011;59683;51.428;-1.994;2023-01-19T05:30:08;59.03;;;15.32;;
66663;SDS011;59683;51.428;-1.994;2023-01-19T05:32:35;44.08;;;13.90;;
66663;SDS011;59683;51.428;-1.994;2023-01-19T05:35:00;28.73;;;11.03;;
66663;SDS011;59683;51.428;-1.994;2023-01-19T05:37:26;31.80;;;11.33;;
66663;SDS011;59683;51.428;-1.994;2023-01-19T05:39:51;31.43;;;12.40;;
66663;SDS011;59683;51.428;-1.994;2023-01-19T05:42:19;41.92;;;13.15;;
66663;SDS011;59683;51.428;-1.994;2023-01-19T05:44:44;45.80;;;14.20;;
66663;SDS011;59683;51.428;-1.994;2023-01-19T05:47:10;48.30;;;12.37;;
66663;SDS011;59683;51.428;-1.994;2023-01-19T05:49:35;45.73;;;12.77;;
66663;SDS011;59683;51.428;-1.994;2023-01-19T05:52:01;40.67;;;13.17;;
66663;SDS011;59683;51.428;-1.994;2023-01-19T05:54:26;40.50;;;12.73;;
66663;SDS011;59683;51.428;-1.994;2023-01-19T05:56:51;36.30;;;12.57;;
66663;SDS011;59683;51.428;-1.994;2023-01-19T05:59:17;42.67;;;13.23;;
66663;SDS011;59683;51.428;-1.994;2023-01-19T06:01:48;53.70;;;13.77;;
66663;SDS011;59683;51.428;-1.994;2023-01-19T06:04:17;49.83;;;14.52;;
66663;SDS011;59683;51.428;-1.994;2023-01-19T06:06:43;50.20;;;14.05;;
66663;SDS011;59683;51.428;-1.994;2023-01-19T06:09:09;37.10;;;11.77;;
66663;SDS011;59683;51.428;-1.994;2023-01-19T06:11:34;40.93;;;13.37;;
66663;SDS011;59683;51.428;-1.994;2023-01-19T06:14:00;33.17;;;11.53;;
66663;SDS011;59683;51.428;-1.994;2023-01-19T06:16:25;45.70;;;14.13;;
66663;SDS011;59683;51.428;-1.994;2023-01-19T06:18:51;45.13;;;12.23;;
66663;SDS011;59683;51.428;-1.994;2023-01-19T06:21:17;27.83;;;10.73;;
66663;SDS011;59683;51.428;-1.994;2023-01-19T06:23:43;40.30;;;13.83;;
66663;SDS011;59683;51.428;-1.994;2023-01-19T06:26:08;44.73;;;13.70;;
66663;SDS011;59683;51.428;-1.994;2023-01-19T06:28:34;42.70;;;12.63;;
66663;SDS011;59683;51.428;-1.994;2023-01-19T06:31:00;54.83;;;14.90;;
66663;SDS011;59683;51.428;-1.994;2023-01-19T06:33:25;66.17;;;15.77;;
66663;SDS011;59683;51.428;-1.994;2023-01-19T06:35:52;64.22;;;16.23;;
66663;SDS011;59683;51.428;-1.994;2023-01-19T06:38:18;69.35;;;18.33;;
66663;SDS011;59683;51.428;-1.994;2023-01-19T06:40:44;60.73;;;17.77;;
66663;SDS011;59683;51.428;-1.994;2023-01-19T06:43:15;67.05;;;18.30;;
66663;SDS011;59683;51.428;-1.994;2023-01-19T06:45:40;61.40;;;18.27;;
66663;SDS011;59683;51.428;-1.994;2023-01-19T06:48:07;51.00;;;15.80;;
66663;SDS011;59683;51.428;-1.994;2023-01-19T06:50:32;65.23;;;16.73;;
66663;SDS011;59683;51.428;-1.994;2023-01-19T06:52:57;52.87;;;16.20;;
66663;SDS011;59683;51.428;-1.994;2023-01-19T06:55:23;52.07;;;13.87;;
66663;SDS011;59683;51.428;-1.994;2023-01-19T06:57:54;51.90;;;16.07;;
66663;SDS011;59683;51.428;-1.994;2023-01-19T07:00:23;40.92;;;13.38;;
66663;SDS011;59683;51.428;-1.994;2023-01-19T07:02:50;35.45;;;13.82;;
66663;SDS011;59683;51.428;-1.994;2023-01-19T07:05:15;32.63;;;12.20;;
66663;SDS011;59683;51.428;-1.994;2023-01-19T07:07:41;47.57;;;14.03;;
66663;SDS011;59683;51.428;-1.994;2023-01-19T07:10:09;39.67;;;12.95;;
66663;SDS011;59683;51.428;-1.994;2023-01-19T07:12:40;49.10;;;15.23;;
66663;SDS011;59683;51.428;-1.994;2023-01-19T07:15:06;59.77;;;16.67;;
66663;SDS011;59683;51.428;-1.994;2023-01-19T07:17:33;52.20;;;16.27;;
66663;SDS011;59683;51.428;-1.994;2023-01-19T07:19:58;63.07;;;17.70;;
66663;SDS011;59683;51.428;-1.994;2023-01-19T07:22:24;51.57;;;17.00;;
66663;SDS011;59683;51.428;-1.994;2023-01-19T07:24:49;59.13;;;19.00;;
66663;SDS011;59683;51.428;-1.994;2023-01-19T07:27:14;61.87;;;18.13;;
66663;SDS011;59683;51.428;-1.994;2023-01-19T07:29:40;58.90;;;17.60;;
66663;SDS011;59683;51.428;-1.994;2023-01-19T07:32:06;52.33;;;18.23;;
66663;SDS011;59683;51.428;-1.994;2023-01-19T07:34:31;51.07;;;18.23;;
66663;SDS011;59683;51.428;-1.994;2023-01-19T07:36:57;52.73;;;18.77;;
66663;SDS011;59683;51.428;-1.994;2023-01-19T07:39:22;50.80;;;19.20;;
66663;SDS011;59683;51.428;-1.994;2023-01-19T07:41:48;54.10;;;18.90;;
66663;SDS011;59683;51.428;-1.994;2023-01-19T07:44:13;54.40;;;19.23;;
66663;SDS011;59683;51.428;-1.994;2023-01-19T07:46:39;62.20;;;21.83;;
66663;SDS011;59683;51.428;-1.994;2023-01-19T07:49:05;53.60;;;19.10;;
66663;SDS011;59683;51.428;-1.994;2023-01-19T07:51:34;52.95;;;18.83;;
66663;SDS011;59683;51.428;-1.994;2023-01-19T07:54:00;48.00;;;16.75;;
66663;SDS011;59683;51.428;-1.994;2023-01-19T07:56:25;41.67;;;15.03;;
66663;SDS011;59683;51.428;-1.994;2023-01-19T07:58:53;43.00;;;15.77;;
66663;SDS011;59683;51.428;-1.994;2023-01-19T08:01:19;48.83;;;16.87;;
66663;SDS011;59683;51.428;-1.994;2023-01-19T08:03:46;34.80;;;13.77;;
66663;SDS011;59683;51.428;-1.994;2023-01-19T08:06:19;29.50;;;12.27;;
66663;SDS011;59683;51.428;-1.994;2023-01-19T08:08:49;37.20;;;14.02;;
66663;SDS011;59683;51.428;-1.994;2023-01-19T08:11:15;35.15;;;14.52;;
66663;SDS011;59683;51.428;-1.994;2023-01-19T08:13:40;38.90;;;15.13;;
66663;SDS011;59683;51.428;-1.994;2023-01-19T08:16:06;33.33;;;12.93;;
66663;SDS011;59683;51.428;-1.994;2023-01-19T08:18:32;35.53;;;13.63;;
66663;SDS011;59683;51.428;-1.994;2023-01-19T08:20:58;49.00;;;17.93;;
66663;SDS011;59683;51.428;-1.994;2023-01-19T08:23:24;65.30;;;21.10;;
66663;SDS011;59683;51.428;-1.994;2023-01-19T08:25:52;77.15;;;23.55;;
66663;SDS011;59683;51.428;-1.994;2023-01-19T08:28:18;74.50;;;23.27;;
66663;SDS011;59683;51.428;-1.994;2023-01-19T08:30:47;61.50;;;22.38;;
66663;SDS011;59683;51.428;-1.994;2023-01-19T08:33:23;56.55;;;21.13;;
66663;SDS011;59683;51.428;-1.994;2023-01-19T08:35:50;53.65;;;20.92;;
66663;SDS011;59683;51.428;-1.994;2023-01-19T08:38:17;58.28;;;22.20;;
66663;SDS011;59683;51.428;-1.994;2023-01-19T08:40:43;56.60;;;18.93;;
66663;SDS011;59683;51.428;-1.994;2023-01-19T08:43:13;44.78;;;17.10;;
66663;SDS011;59683;51.428;-1.994;2023-01-19T08:45:40;47.28;;;17.77;;
66663;SDS011;59683;51.428;-1.994;2023-01-19T08:48:13;54.95;;;17.00;;
66663;SDS011;59683;51.428;-1.994;2023-01-19T08:50:40;46.85;;;18.30;;
66663;SDS011;59683;51.428;-1.994;2023-01-19T08:53:06;43.93;;;18.33;;
66663;SDS011;59683;51.428;-1.994;2023-01-19T08:55:32;40.85;;;15.90;;
66663;SDS011;59683;51.428;-1.994;2023-01-19T08:58:00;40.80;;;16.13;;
66663;SDS011;59683;51.428;-1.994;2023-01-19T09:00:28;40.13;;;14.80;;
66663;SDS011;59683;51.428;-1.994;2023-01-19T09:02:55;38.65;;;15.43;;
66663;SDS011;59683;51.428;-1.994;2023-01-19T09:05:21;40.13;;;15.55;;
66663;SDS011;59683;51.428;-1.994;2023-01-19T09:07:47;44.60;;;16.63;;
66663;SDS011;59683;51.428;-1.994;2023-01-19T09:10:14;54.37;;;15.20;;
66663;SDS011;59683;51.428;-1.994;2023-01-19T09:12:40;47.33;;;16.55;;
66663;SDS011;59683;51.428;-1.994;2023-01-19T09:15:07;44.55;;;16.10;;
66663;SDS011;59683;51.428;-1.994;2023-01-19T09:17:35;49.28;;;17.55;;
66663;SDS011;59683;51.428;-1.994;2023-01-19T09:20:01;48.15;;;17.15;;
66663;SDS011;59683;51.428;-1.994;2023-01-19T15:55:39;27.42;;;11.00;;
66663;SDS011;59683;51.428;-1.994;2023-01-19T15:58:07;23.30;;;9.05;;
66663;SDS011;59683;51.428;-1.994;2023-01-19T16:00:34;21.58;;;8.57;;
66663;SDS011;59683;51.428;-1.994;2023-01-19T16:23:51;18.60;;;9.45;;
66663;SDS011;59683;51.428;-1.994;2023-01-19T16:26:33;23.33;;;8.55;;
66663;SDS011;59683;51.428;-1.994;2023-01-19T16:29:09;16.58;;;7.18;;
66663;SDS011;59683;51.428;-1.994;2023-01-19T16:31:36;20.95;;;8.30;;
66663;SDS011;59683;51.428;-1.994;2023-01-19T16:34:06;27.00;;;10.88;;
66663;SDS011;59683;51.428;-1.994;2023-01-19T16:36:34;63.05;;;30.02;;
66663;SDS011;59683;51.428;-1.994;2023-01-19T16:39:05;137.25;;;64.10;;
66663;SDS011;59683;51.428;-1.994;2023-01-19T16:44:15;119.82;;;54.53;;
66663;SDS011;59683;51.428;-1.994;2023-01-19T16:54:32;57.88;;;25.25;;
66663;SDS011;59683;51.428;-1.994;2023-01-19T17:04:47;79.00;;;33.50;;
66663;SDS011;59683;51.428;-1.994;2023-01-19T17:07:13;83.43;;;34.67;;
66663;SDS011;59683;51.428;-1.994;2023-01-19T17:09:47;48.90;;;20.65;;
66663;SDS011;59683;51.428;-1.994;2023-01-19T17:19:58;21.25;;;10.98;;
66663;SDS011;59683;51.428;-1.994;2023-01-19T17:22:26;31.83;;;12.85;;
66663;SDS011;59683;51.428;-1.994;2023-01-19T17:24:53;43.60;;;17.83;;
66663;SDS011;59683;51.428;-1.994;2023-01-19T17:30:02;41.38;;;17.40;;
66663;SDS011;59683;51.428;-1.994;2023-01-19T17:42:51;39.33;;;18.90;;
66663;SDS011;59683;51.428;-1.994;2023-01-19T17:53:05;52.08;;;23.42;;
66663;SDS011;59683;51.428;-1.994;2023-01-19T18:11:48;103.28;;;34.03;;
66663;SDS011;59683;51.428;-1.994;2023-01-19T21:36:19;48.22;;;18.10;;
66663;SDS011;59683;51.428;-1.994;2023-01-19T21:39:24;60.85;;;23.20;;
66663;SDS011;59683;51.428;-1.994;2023-01-19T21:42:30;61.92;;;24.20;;
66663;SDS011;59683;51.428;-1.994;2023-01-19T21:45:00;50.67;;;22.40;;
66663;SDS011;59683;51.428;-1.994;2023-01-19T21:52:59;56.10;;;24.48;;
66663;SDS011;59683;51.428;-1.994;2023-01-19T21:55:27;85.15;;;32.55;;
66663;SDS011;59683;51.428;-1.994;2023-01-19T22:00:29;73.38;;;28.92;;
66663;SDS011;59683;51.428;-1.994;2023-01-19T22:02:56;61.67;;;25.50;;
66663;SDS011;59683;51.428;-1.994;2023-01-19T22:05:25;49.65;;;23.63;;
66663;SDS011;59683;51.428;-1.994;2023-01-19T22:07:52;52.00;;;22.17;;
66663;SDS011;59683;51.428;-1.994;2023-01-19T22:10:20;51.92;;;22.65;;
66663;SDS011;59683;51.428;-1.994;2023-01-19T22:12:47;66.93;;;26.05;;
66663;SDS011;59683;51.428;-1.994;2023-01-19T22:15:14;49.00;;;20.50;;
66663;SDS011;59683;51.428;-1.994;2023-01-19T22:17:40;66.57;;;25.87;;
66663;SDS011;59683;51.428;-1.994;2023-01-19T22:20:06;59.10;;;24.30;;
66663;SDS011;59683;51.428;-1.994;2023-01-19T22:22:32;84.40;;;28.15;;
66663;SDS011;59683;51.428;-1.994;2023-01-19T22:24:58;66.27;;;26.73;;
66663;SDS011;59683;51.428;-1.994;2023-01-19T22:27:23;55.33;;;22.33;;
66663;SDS011;59683;51.428;-1.994;2023-01-19T22:29:49;57.37;;;23.00;;
66663;SDS011;59683;51.428;-1.994;2023-01-19T22:32:15;50.00;;;21.17;;
66663;SDS011;59683;51.428;-1.994;2023-01-19T22:34:40;53.27;;;19.90;;
66663;SDS011;59683;51.428;-1.994;2023-01-19T22:37:06;42.17;;;18.17;;
66663;SDS011;59683;51.428;-1.994;2023-01-19T22:39:31;50.17;;;22.67;;
66663;SDS011;59683;51.428;-1.994;2023-01-19T22:41:58;64.97;;;25.35;;
66663;SDS011;59683;51.428;-1.994;2023-01-19T22:44:23;67.80;;;25.70;;
66663;SDS011;59683;51.428;-1.994;2023-01-19T22:46:49;66.77;;;25.57;;
66663;SDS011;59683;51.428;-1.994;2023-01-19T22:49:21;71.65;;;27.95;;
66663;SDS011;59683;51.428;-1.994;2023-01-19T22:51:47;63.83;;;26.50;;
66663;SDS011;59683;51.428;-1.994;2023-01-19T22:54:12;65.97;;;26.50;;
66663;SDS011;59683;51.428;-1.994;2023-01-19T22:56:38;51.53;;;21.63;;
66663;SDS011;59683;51.428;-1.994;2023-01-19T22:59:04;53.60;;;20.42;;
66663;SDS011;59683;51.428;-1.994;2023-01-19T23:01:31;53.27;;;21.77;;
66663;SDS011;59683;51.428;-1.994;2023-01-19T23:04:00;53.53;;;21.33;;
66663;SDS011;59683;51.428;-1.994;2023-01-19T23:06:27;71.88;;;22.77;;
66663;SDS011;59683;51.428;-1.994;2023-01-19T23:08:55;48.92;;;18.13;;
66663;SDS011;59683;51.428;-1.994;2023-01-19T23:11:23;40.97;;;16.83;;
66663;SDS011;59683;51.428;-1.994;2023-01-19T23:13:50;41.72;;;14.80;;
66663;SDS011;59683;51.428;-1.994;2023-01-19T23:16:17;46.90;;;17.58;;
66663;SDS011;59683;51.428;-1.994;2023-01-19T23:18:43;44.00;;;17.00;;
66663;SDS011;59683;51.428;-1.994;2023-01-19T23:21:10;47.05;;;15.57;;
66663;SDS011;59683;51.428;-1.994;2023-01-19T23:23:36;52.67;;;18.55;;
66663;SDS011;59683;51.428;-1.994;2023-01-19T23:28:38;42.33;;;17.55;;
66663;SDS011;59683;51.428;-1.994;2023-01-19T23:33:51;43.60;;;16.70;;
66663;SDS011;59683;51.428;-1.994;2023-01-19T23:36:19;62.53;;;21.73;;
66663;SDS011;59683;51.428;-1.994;2023-01-19T23:38:46;63.20;;;22.70;;
66663;SDS011;59683;51.428;-1.994;2023-01-19T23:41:13;53.47;;;20.17;;
66663;SDS011;59683;51.428;-1.994;2023-01-19T23:43:39;43.23;;;18.80;;
66663;SDS011;59683;51.428;-1.994;2023-01-19T23:46:05;46.17;;;18.77;;
66663;SDS011;59683;51.428;-1.994;2023-01-19T23:48:32;43.42;;;18.75;;
66663;SDS011;59683;51.428;-1.994;2023-01-19T23:50:58;33.75;;;15.93;;
66663;SDS011;59683;51.428;-1.994;2023-01-19T23:53:24;36.63;;;16.43;;
66663;SDS011;59683;51.428;-1.994;2023-01-19T23:55:49;36.80;;;15.73;;
66663;SDS011;59683;51.428;-1.994;2023-01-19T23:58:15;47.50;;;16.50;;
